createdAt,value
2022-09-02T00:00:13.961Z,94.10
2022-09-02T00:02:42.147Z,94.10
2022-09-02T00:05:10.194Z,94.10
2022-09-02T00:07:38.087Z,94.10
2022-09-02T00:10:06.611Z,94.10
2022-09-02T00:12:36.346Z,94.20
2022-09-02T00:15:05.558Z,94.20
2022-09-02T00:17:33.470Z,94.20
2022-09-02T00:20:01.330Z,94.30
2022-09-02T00:22:29.206Z,94.30
2022-09-02T00:24:57.022Z,94.40
2022-09-02T00:27:25.272Z,94.40
2022-09-02T00:29:54.529Z,94.50
2022-09-02T00:32:22.384Z,94.50
2022-09-02T00:34:50.334Z,94.50
2022-09-02T00:37:18.449Z,94.60
2022-09-02T00:39:46.318Z,94.70
2022-09-02T00:42:14.245Z,94.90
2022-09-02T00:44:42.479Z,94.80
2022-09-02T00:47:11.804Z,94.80
2022-09-02T00:49:43.487Z,94.70
2022-09-02T00:52:15.681Z,94.80
2022-09-02T00:54:52.833Z,94.80
2022-09-02T00:57:23.516Z,95.00
2022-09-02T00:59:59.876Z,94.90
2022-09-02T01:02:31.604Z,94.90
2022-09-02T01:05:00.029Z,94.90
2022-09-02T01:07:33.882Z,95.00
2022-09-02T01:10:02.889Z,94.90
2022-09-02T01:12:32.169Z,94.90
2022-09-02T01:15:00.533Z,95.00
2022-09-02T01:17:30.005Z,95.00
2022-09-02T01:20:02.601Z,95.00
2022-09-02T01:22:33.499Z,95.10
2022-09-02T01:25:09.338Z,95.20
2022-09-02T01:27:37.397Z,95.20
2022-09-02T01:30:07.541Z,95.20
2022-09-02T01:32:35.466Z,95.30
2022-09-02T01:35:03.706Z,95.40
2022-09-02T01:37:33.365Z,95.40
2022-09-02T01:40:01.641Z,95.50
2022-09-02T01:42:30.343Z,95.50
2022-09-02T01:44:58.318Z,95.50
2022-09-02T01:47:27.913Z,95.40
2022-09-02T01:49:56.190Z,95.40
2022-09-02T01:52:27.382Z,95.50
2022-09-02T01:54:56.964Z,95.30
2022-09-02T01:57:25.194Z,95.40
2022-09-02T01:59:53.533Z,95.40
2022-09-02T02:02:22.458Z,95.70
2022-09-02T02:04:51.333Z,95.50
2022-09-02T02:07:22.488Z,95.60
2022-09-02T02:09:50.602Z,95.70
2022-09-02T02:12:20.413Z,95.80
2022-09-02T02:14:48.426Z,95.80
2022-09-02T02:17:16.327Z,95.90
2022-09-02T02:19:44.665Z,95.90
2022-09-02T02:22:14.027Z,95.90
2022-09-02T02:24:41.925Z,96.00
2022-09-02T02:27:09.758Z,96.00
2022-09-02T02:29:39.056Z,96.00
2022-09-02T02:32:07.472Z,96.10
2022-09-02T02:34:35.506Z,96.20
2022-09-02T02:37:03.451Z,96.40
2022-09-02T02:39:31.314Z,96.20
2022-09-02T02:41:59.347Z,96.30
2022-09-02T02:44:27.783Z,96.30
2022-09-02T02:46:57.498Z,96.40
2022-09-02T02:49:26.892Z,96.30
2022-09-02T02:51:54.928Z,96.50
2022-09-02T02:54:23.251Z,96.40
2022-09-02T02:56:56.832Z,96.40
2022-09-02T02:59:26.018Z,96.40
2022-09-02T03:01:54.100Z,96.40
2022-09-02T03:04:24.402Z,96.50
2022-09-02T03:06:52.309Z,96.60
2022-09-02T03:09:20.484Z,96.60
2022-09-02T03:11:48.583Z,96.60
2022-09-02T03:14:16.947Z,96.60
2022-09-02T03:16:44.826Z,96.50
2022-09-02T03:19:14.237Z,96.50
2022-09-02T03:21:44.072Z,96.40
2022-09-02T03:24:13.157Z,96.30
2022-09-02T03:26:43.318Z,96.40
2022-09-02T03:29:11.222Z,96.30
2022-09-02T03:31:39.285Z,96.30
2022-09-02T03:34:07.838Z,96.30
2022-09-02T03:36:38.669Z,96.30
2022-09-02T03:39:09.894Z,96.30
2022-09-02T03:41:41.115Z,96.40
2022-09-02T03:44:09.830Z,96.40
2022-09-02T03:46:37.794Z,96.40
2022-09-02T03:49:05.810Z,96.40
2022-09-02T03:51:33.882Z,96.40
2022-09-02T03:54:03.985Z,96.40
2022-09-02T03:56:33.261Z,96.50
2022-09-02T03:59:01.354Z,96.50
2022-09-02T04:01:34.954Z,96.40
2022-09-02T04:04:03.627Z,96.40
2022-09-02T04:06:32.549Z,96.30
2022-09-02T04:09:00.955Z,96.40
2022-09-02T04:11:28.858Z,96.30
2022-09-02T04:13:59.280Z,96.40
2022-09-02T04:21:10.276Z,96.40
2022-09-02T04:23:38.773Z,96.50
2022-09-02T04:26:08.269Z,96.60
2022-09-02T04:28:36.498Z,96.60
2022-09-02T04:31:07.570Z,96.60
2022-09-02T04:33:36.606Z,96.60
2022-09-02T04:36:07.037Z,96.60
2022-09-02T04:38:36.492Z,96.60
2022-09-02T04:41:08.759Z,96.60
2022-09-02T04:43:36.975Z,96.60
2022-09-02T04:46:08.204Z,96.70
2022-09-02T04:48:38.117Z,96.80
2022-09-02T04:51:07.437Z,96.80
2022-09-02T04:53:35.762Z,96.90
2022-09-02T04:56:05.202Z,96.90
2022-09-02T04:58:33.201Z,96.90
2022-09-02T05:01:01.150Z,96.90
2022-09-02T05:03:32.011Z,96.90
2022-09-02T05:06:01.395Z,97.00
2022-09-02T05:08:29.433Z,97.00
2022-09-02T05:10:57.308Z,97.00
2022-09-02T05:13:25.997Z,97.10
2022-09-02T05:15:54.605Z,97.10
2022-09-02T05:18:22.758Z,97.20
2022-09-02T05:20:52.270Z,97.30
2022-09-02T05:23:20.491Z,97.30
2022-09-02T05:25:48.634Z,97.60
2022-09-02T05:28:16.565Z,97.60
2022-09-02T05:33:38.597Z,97.90
2022-09-02T05:36:09.454Z,97.80
2022-09-02T05:38:37.317Z,98.10
2022-09-02T05:41:08.103Z,98.40
2022-09-02T05:43:37.455Z,98.40
2022-09-02T05:46:08.144Z,98.50
2022-09-02T05:48:54.399Z,98.60
2022-09-02T05:51:23.752Z,98.70
2022-09-02T05:53:54.283Z,98.80
2022-09-02T05:56:22.820Z,98.90
2022-09-02T05:58:51.480Z,99.20
2022-09-02T06:01:20.721Z,99.10
2022-09-02T06:03:50.360Z,99.20
2022-09-02T06:06:18.898Z,99.30
2022-09-02T06:08:48.187Z,99.20
2022-09-02T06:11:17.807Z,99.30
2022-09-02T06:13:45.855Z,99.20
2022-09-02T06:16:16.953Z,99.20
2022-09-02T06:18:46.825Z,99.20
2022-09-02T06:21:16.064Z,99.20
2022-09-02T06:23:44.944Z,99.30
2022-09-02T06:26:21.590Z,99.20
2022-09-02T06:28:49.646Z,99.20
2022-09-02T06:31:20.531Z,99.10
2022-09-02T06:33:52.049Z,99.10
2022-09-02T06:36:21.101Z,99.10
2022-09-02T06:38:50.600Z,99.00
2022-09-02T06:41:24.174Z,99.00
2022-09-02T06:43:52.183Z,99.00
2022-09-02T06:46:24.499Z,99.00
2022-09-02T06:48:52.581Z,99.00
2022-09-02T06:51:21.392Z,98.90
2022-09-02T06:53:49.269Z,98.90
2022-09-02T06:56:17.172Z,98.90
2022-09-02T06:58:46.524Z,98.90
2022-09-02T07:01:20.147Z,98.80
2022-09-02T07:04:05.718Z,98.90
2022-09-02T07:06:37.598Z,98.90
2022-09-02T07:09:06.076Z,98.80
2022-09-02T07:11:34.299Z,98.80
2022-09-02T07:14:03.733Z,98.80
2022-09-02T07:16:34.313Z,98.80
2022-09-02T07:19:02.639Z,98.70
2022-09-02T07:21:31.969Z,98.70
2022-09-02T07:24:00.643Z,98.70
2022-09-02T07:26:29.745Z,98.50
2022-09-02T07:28:58.413Z,98.50
2022-09-02T07:31:29.314Z,98.30
2022-09-02T07:33:59.027Z,98.20
2022-09-02T07:36:27.859Z,98.20
2022-09-02T07:38:56.167Z,98.20
2022-09-02T07:41:25.114Z,98.10
2022-09-02T07:43:55.270Z,98.00
2022-09-02T07:46:27.307Z,97.90
2022-09-02T07:48:55.258Z,97.80
2022-09-02T07:51:23.138Z,97.70
2022-09-02T07:53:51.595Z,97.80
2022-09-02T07:56:19.940Z,97.80
2022-09-02T07:58:48.679Z,97.50
2022-09-02T08:01:21.256Z,97.40
2022-09-02T08:03:52.999Z,97.30
2022-09-02T08:06:34.935Z,97.20
2022-09-02T08:09:04.883Z,96.80
2022-09-02T08:11:35.287Z,96.60
2022-09-02T08:14:03.202Z,96.60
2022-09-02T08:16:31.645Z,96.60
2022-09-02T08:19:00.926Z,96.30
2022-09-02T08:21:29.427Z,96.40
2022-09-02T08:23:57.406Z,96.30
2022-09-02T08:26:28.345Z,96.30
2022-09-02T08:28:56.458Z,95.90
2022-09-02T08:31:24.918Z,95.90
2022-09-02T08:33:52.865Z,96.10
2022-09-02T08:36:22.396Z,95.70
2022-09-02T08:38:50.461Z,95.50
2022-09-02T08:41:22.866Z,95.40
2022-09-02T08:43:52.400Z,95.30
2022-09-02T08:46:25.842Z,95.00
2022-09-02T08:48:59.281Z,94.70
2022-09-02T08:51:37.219Z,94.80
2022-09-02T08:54:08.847Z,94.90
2022-09-02T08:56:36.878Z,94.50
2022-09-02T08:59:07.036Z,94.40
2022-09-02T09:01:46.597Z,94.30
2022-09-02T09:04:21.904Z,94.10
2022-09-02T09:07:14.940Z,93.70
2022-09-02T09:09:56.377Z,94.10
2022-09-02T09:12:37.309Z,93.50
2022-09-02T09:15:10.394Z,93.10
2022-09-02T09:17:44.628Z,93.10
2022-09-02T09:20:19.584Z,93.00
2022-09-02T09:22:52.007Z,93.00
2022-09-02T09:25:20.239Z,92.90
2022-09-02T09:27:48.113Z,92.90
2022-09-02T09:30:16.189Z,92.80
2022-09-02T09:32:47.439Z,93.10
2022-09-02T09:35:16.214Z,92.50
2022-09-02T09:37:47.894Z,92.30
2022-09-02T09:40:30.881Z,92.20
2022-09-02T09:43:14.908Z,91.90
2022-09-02T09:45:45.119Z,91.50
2022-09-02T09:48:22.840Z,90.90
2022-09-02T09:51:12.415Z,91.00
2022-09-02T09:53:41.146Z,90.90
2022-09-02T09:56:29.948Z,90.70
2022-09-02T09:58:57.884Z,90.80
2022-09-02T10:01:29.307Z,90.90
2022-09-02T10:04:00.817Z,90.40
2022-09-02T10:06:39.414Z,90.10
2022-09-02T10:09:32.361Z,90.00
2022-09-02T10:12:04.981Z,90.20
2022-09-02T10:14:37.803Z,90.10
2022-09-02T10:17:17.238Z,89.80
2022-09-02T10:19:51.321Z,89.50
2022-09-02T10:23:00.503Z,89.20
2022-09-02T10:25:36.970Z,88.70
2022-09-02T10:28:17.457Z,88.30
2022-09-02T10:30:55.370Z,87.90
2022-09-02T10:33:41.769Z,88.20
2022-09-02T10:36:23.291Z,86.50
2022-09-02T10:38:53.273Z,86.30
2022-09-02T10:41:34.211Z,86.00
2022-09-02T10:44:32.629Z,86.10
2022-09-02T10:47:03.577Z,84.90
2022-09-02T10:49:46.234Z,84.50
2022-09-02T10:52:39.567Z,83.40
2022-09-02T10:55:17.775Z,82.30
2022-09-02T10:57:51.102Z,82.30
2022-09-02T11:00:23.093Z,83.60
2022-09-02T11:02:55.458Z,82.80
2022-09-02T11:05:28.326Z,81.80
2022-09-02T11:08:02.115Z,81.10
2022-09-02T11:10:33.929Z,80.40
2022-09-02T11:13:06.222Z,79.90
2022-09-02T11:15:44.989Z,80.50
2022-09-02T11:18:21.882Z,79.70
2022-09-02T11:20:55.469Z,80.00
2022-09-02T11:23:30.766Z,78.70
2022-09-02T11:26:05.922Z,76.90
2022-09-02T11:28:41.082Z,76.00
2022-09-02T11:31:18.047Z,75.80
2022-09-02T11:33:53.905Z,75.80
2022-09-02T11:36:22.255Z,75.90
2022-09-02T11:38:56.029Z,75.80
2022-09-02T11:41:47.158Z,75.40
2022-09-02T11:44:52.795Z,74.50
2022-09-02T11:47:51.913Z,73.80
2022-09-02T11:50:37.255Z,74.20
2022-09-02T11:53:20.748Z,72.70
2022-09-02T11:55:53.902Z,72.00
2022-09-02T11:58:39.404Z,72.40
2022-09-02T12:01:30.012Z,71.60
2022-09-02T12:07:26.934Z,69.90
2022-09-02T12:09:58.112Z,70.80
2022-09-02T12:13:07.991Z,70.90
2022-09-02T12:15:36.767Z,70.10
2022-09-02T12:18:13.280Z,70.30
2022-09-02T12:21:18.335Z,69.30
2022-09-02T12:24:12.625Z,68.20
2022-09-02T12:27:20.013Z,68.60
2022-09-02T12:29:48.005Z,68.00
2022-09-02T12:33:05.002Z,68.50
2022-09-02T12:35:54.730Z,67.80
2022-09-02T12:38:38.711Z,66.50
2022-09-02T12:41:27.617Z,66.70
2022-09-02T12:44:19.900Z,66.00
2022-09-02T12:47:05.570Z,66.60
2022-09-02T12:49:54.827Z,65.40
2022-09-02T12:52:44.567Z,65.20
2022-09-02T12:55:23.393Z,65.10
2022-09-02T12:57:53.568Z,66.10
2022-09-02T13:00:31.254Z,64.70
2022-09-02T13:03:13.809Z,65.30
2022-09-02T13:05:55.115Z,64.90
2022-09-02T13:09:00.825Z,64.50
2022-09-02T13:11:59.360Z,64.30
2022-09-02T13:14:55.955Z,62.80
2022-09-02T13:17:45.929Z,63.40
2022-09-02T13:20:48.163Z,63.40
2022-09-02T13:24:00.695Z,63.40
2022-09-02T13:26:54.801Z,63.40
2022-09-02T13:29:41.787Z,62.70
2022-09-02T13:32:15.722Z,61.90
2022-09-02T13:34:44.831Z,62.10
2022-09-02T13:37:28.332Z,62.60
2022-09-02T13:39:56.635Z,60.90
2022-09-02T13:42:32.926Z,62.10
2022-09-02T13:45:11.415Z,61.60
2022-09-02T13:47:42.607Z,61.00
2022-09-02T13:50:12.137Z,61.50
2022-09-02T13:55:30.178Z,61.00
2022-09-02T13:58:03.477Z,60.70
2022-09-02T14:00:36.126Z,60.50
2022-09-02T14:03:07.305Z,59.80
2022-09-02T14:05:38.696Z,60.00
2022-09-02T14:08:09.467Z,59.60
2022-09-02T14:10:38.944Z,60.20
2022-09-02T14:13:09.182Z,59.20
2022-09-02T14:15:37.392Z,59.40
2022-09-02T14:18:14.483Z,59.30
2022-09-02T14:20:59.132Z,58.00
2022-09-02T14:23:29.075Z,57.90
2022-09-02T14:25:58.850Z,58.00
2022-09-02T14:28:30.458Z,57.70
2022-09-02T14:31:02.485Z,58.00
2022-09-02T14:33:42.362Z,57.90
2022-09-02T14:36:13.493Z,57.70
2022-09-02T14:38:52.164Z,57.80
2022-09-02T14:41:25.307Z,57.30
2022-09-02T14:43:57.834Z,57.30
2022-09-02T14:46:28.836Z,57.80
2022-09-02T14:49:02.953Z,57.20
2022-09-02T14:51:37.826Z,56.90
2022-09-02T14:54:07.351Z,56.60
2022-09-02T14:56:48.873Z,56.10
2022-09-02T14:59:18.414Z,56.20
2022-09-02T15:01:49.021Z,56.30
2022-09-02T15:04:18.318Z,56.40
2022-09-02T15:06:47.252Z,56.10
2022-09-02T15:09:16.703Z,55.60
2022-09-02T15:11:47.613Z,55.80
2022-09-02T15:14:16.829Z,55.90
2022-09-02T15:16:44.709Z,55.70
2022-09-02T15:19:12.606Z,55.90
2022-09-02T15:21:40.455Z,55.30
2022-09-02T15:24:08.594Z,55.10
2022-09-02T15:26:36.528Z,55.60
2022-09-02T15:29:05.033Z,55.80
2022-09-02T15:31:36.404Z,55.70
2022-09-02T15:34:04.809Z,55.20
2022-09-02T15:36:32.694Z,55.10
2022-09-02T15:39:01.020Z,55.10
2022-09-02T15:41:31.375Z,55.10
2022-09-02T15:44:00.634Z,54.60
2022-09-02T15:46:30.638Z,54.00
2022-09-02T15:49:03.234Z,53.80
2022-09-02T15:51:31.200Z,53.90
2022-09-02T15:54:00.802Z,54.10
2022-09-02T15:56:30.611Z,54.10
2022-09-02T15:59:00.301Z,53.90
2022-09-02T16:01:29.187Z,53.60
2022-09-02T16:03:58.981Z,54.10
2022-09-02T16:06:26.877Z,54.60
2022-09-02T16:08:55.409Z,55.00
2022-09-02T16:11:23.634Z,54.80
2022-09-02T16:13:51.901Z,54.50
2022-09-02T16:16:19.926Z,54.00
2022-09-02T16:18:51.737Z,54.60
2022-09-02T16:21:22.210Z,54.20
2022-09-02T16:23:51.514Z,54.00
2022-09-02T16:26:24.495Z,54.60
2022-09-02T16:28:54.146Z,54.40
2022-09-02T16:31:22.844Z,54.50
2022-09-02T16:33:54.763Z,55.00
2022-09-02T16:36:25.165Z,55.20
2022-09-02T16:39:00.934Z,55.10
2022-09-02T16:41:32.346Z,55.20
2022-09-02T16:44:01.818Z,55.40
2022-09-02T16:46:31.169Z,55.60
2022-09-02T16:49:00.147Z,56.10
2022-09-02T16:51:30.283Z,56.10
2022-09-02T16:54:00.798Z,56.30
2022-09-02T16:56:30.535Z,56.10
2022-09-02T16:59:02.705Z,56.60
2022-09-02T17:01:32.580Z,56.50
2022-09-02T17:04:01.246Z,56.50
2022-09-02T17:06:31.348Z,57.00
2022-09-02T17:08:59.506Z,57.10
2022-09-02T17:11:29.547Z,57.20
2022-09-02T17:13:59.886Z,57.40
2022-09-02T17:16:29.664Z,57.60
2022-09-02T17:18:58.182Z,58.00
2022-09-02T17:21:29.671Z,58.20
2022-09-02T17:23:59.225Z,58.30
2022-09-02T17:26:28.811Z,58.30
2022-09-02T17:28:57.803Z,58.40
2022-09-02T17:31:27.926Z,58.50
2022-09-02T17:33:58.431Z,58.90
2022-09-02T17:36:28.788Z,58.80
2022-09-02T17:38:59.098Z,59.00
2022-09-02T17:41:45.077Z,59.50
2022-09-02T17:44:15.099Z,59.20
2022-09-02T17:46:44.255Z,59.30
2022-09-02T17:49:17.193Z,59.50
2022-09-02T17:51:46.396Z,59.50
2022-09-02T17:54:16.359Z,59.70
2022-09-02T17:57:10.664Z,60.00
2022-09-02T17:59:53.457Z,59.80
2022-09-02T18:03:08.383Z,60.30
2022-09-02T18:05:54.734Z,60.40
2022-09-02T18:08:32.794Z,60.70
2022-09-02T18:11:05.172Z,60.60
2022-09-02T18:13:44.186Z,60.80
2022-09-02T18:16:33.445Z,60.90
2022-09-02T18:19:13.422Z,60.60
2022-09-02T18:22:05.773Z,60.80
2022-09-02T18:24:52.182Z,60.60
2022-09-02T18:27:30.396Z,60.70
2022-09-02T18:30:06.368Z,61.30
2022-09-02T18:33:08.971Z,61.70
2022-09-02T18:35:46.401Z,62.10
2022-09-02T18:38:22.361Z,62.60
2022-09-02T18:40:58.555Z,62.80
2022-09-02T18:43:37.934Z,63.20
2022-09-02T18:46:08.785Z,63.40
2022-09-02T18:48:37.981Z,63.60
2022-09-02T18:51:11.477Z,63.60
2022-09-02T18:53:43.490Z,63.60
2022-09-02T18:56:13.774Z,63.80
2022-09-02T18:58:47.258Z,64.00
2022-09-02T19:01:21.877Z,64.10
2022-09-02T19:03:49.957Z,64.20
2022-09-02T19:06:20.123Z,64.50
2022-09-02T19:08:49.199Z,64.30
2022-09-02T19:11:18.501Z,64.30
2022-09-02T19:13:49.924Z,64.50
2022-09-02T19:16:20.278Z,64.30
2022-09-02T19:18:48.686Z,64.40
2022-09-02T19:21:19.841Z,64.70
2022-09-02T19:23:48.967Z,64.90
2022-09-02T19:26:17.428Z,65.10
2022-09-02T19:28:48.311Z,65.20
2022-09-02T19:31:19.267Z,65.30
2022-09-02T19:33:54.904Z,65.60
2022-09-02T19:36:26.341Z,65.60
2022-09-02T19:38:59.124Z,65.80
2022-09-02T19:41:27.960Z,66.10
2022-09-02T19:43:57.307Z,66.20
2022-09-02T19:47:06.930Z,66.00
2022-09-02T19:49:13.215Z,66.20
2022-09-02T19:51:42.242Z,66.20
2022-09-02T19:54:10.868Z,66.10
2022-09-02T19:56:38.938Z,66.00
2022-09-02T19:59:08.927Z,66.00
2022-09-02T20:01:36.783Z,66.00
2022-09-02T20:04:05.917Z,66.20
2022-09-02T20:06:34.231Z,66.00
2022-09-02T20:09:02.198Z,66.00
2022-09-02T20:11:30.202Z,66.00
2022-09-02T20:13:58.386Z,66.10
2022-09-02T20:16:29.468Z,66.20
2022-09-02T20:18:57.700Z,66.20
2022-09-02T20:21:28.380Z,66.20
2022-09-02T20:23:59.958Z,66.30
2022-09-02T20:26:36.650Z,66.50
2022-09-02T20:29:23.739Z,66.50
2022-09-02T20:32:05.437Z,66.50
2022-09-02T20:34:48.126Z,66.80
2022-09-02T20:37:30.432Z,66.80
2022-09-02T20:40:26.943Z,66.90
2022-09-02T20:43:17.929Z,66.90
2022-09-02T20:45:51.999Z,66.80
2022-09-02T20:48:37.950Z,67.20
2022-09-02T20:51:10.899Z,67.00
2022-09-02T20:54:01.232Z,67.30
2022-09-02T20:56:35.848Z,67.30
2022-09-02T20:59:12.158Z,67.40
2022-09-02T21:01:42.776Z,67.50
2022-09-02T21:04:28.956Z,67.60
2022-09-02T21:07:02.181Z,67.90
2022-09-02T21:09:39.400Z,67.90
2022-09-02T21:12:18.386Z,68.10
2022-09-02T21:14:51.456Z,68.50
2022-09-02T21:17:27.805Z,68.20
2022-09-02T21:20:07.697Z,68.10
2022-09-02T21:22:38.833Z,68.20
2022-09-02T21:25:11.463Z,68.40
2022-09-02T21:27:46.105Z,68.60
2022-09-02T21:30:19.561Z,68.50
2022-09-02T21:32:52.438Z,68.80
2022-09-02T21:35:25.205Z,68.80
2022-09-02T21:37:59.040Z,68.70
2022-09-02T21:40:38.263Z,68.90
2022-09-02T21:43:22.966Z,69.00
2022-09-02T21:46:00.897Z,69.00
2022-09-02T21:48:33.804Z,69.10
2022-09-02T21:51:05.814Z,69.20
2022-09-02T21:53:49.895Z,69.30
2022-09-02T21:56:42.279Z,69.40
2022-09-02T21:59:36.974Z,69.40
2022-09-02T22:02:09.504Z,69.50
2022-09-02T22:04:50.744Z,69.50
2022-09-02T22:07:25.470Z,69.70
2022-09-02T22:10:06.111Z,69.90
2022-09-02T22:12:39.593Z,70.00
2022-09-02T22:15:14.813Z,70.30
2022-09-02T22:17:47.897Z,70.50
2022-09-02T22:20:18.986Z,70.80
2022-09-02T22:22:54.238Z,70.60
2022-09-02T22:25:22.933Z,70.90
2022-09-02T22:27:55.782Z,71.20
2022-09-02T22:30:24.061Z,71.30
2022-09-02T22:33:02.529Z,71.40
2022-09-02T22:35:34.806Z,71.60
2022-09-02T22:38:10.243Z,71.80
2022-09-02T22:40:43.342Z,72.20
2022-09-02T22:43:15.215Z,72.30
2022-09-02T22:46:06.952Z,72.50
2022-09-02T22:48:56.401Z,72.30
2022-09-02T22:51:47.985Z,72.30
2022-09-02T22:54:17.420Z,72.30
2022-09-02T22:56:56.855Z,72.10
2022-09-02T22:59:33.054Z,72.20
2022-09-02T23:02:11.141Z,72.20
2022-09-02T23:04:50.010Z,72.40
2022-09-02T23:07:17.918Z,72.50
2022-09-02T23:09:53.804Z,72.50
2022-09-02T23:12:31.555Z,72.50
2022-09-02T23:15:10.262Z,72.60
2022-09-02T23:17:48.246Z,72.60
2022-09-02T23:20:28.258Z,72.70
2022-09-02T23:23:22.682Z,72.60
2022-09-02T23:26:08.282Z,72.50
2022-09-02T23:28:43.752Z,72.40
2022-09-02T23:31:21.901Z,72.30
2022-09-02T23:34:04.300Z,72.40
2022-09-02T23:36:41.315Z,72.30
2022-09-02T23:39:20.773Z,72.30
2022-09-02T23:41:50.071Z,72.30
2022-09-02T23:44:17.949Z,72.40
2022-09-02T23:47:03.402Z,72.60
2022-09-02T23:49:38.827Z,72.80
2022-09-02T23:52:14.245Z,72.70
2022-09-02T23:55:00.000Z,72.70
2022-09-02T23:57:44.482Z,72.80
